sensor_id;sensor_type;location;lat;lon;timestamp;temperature;humidity
49465;DHT22;35358;49.342;8.802;2023-02-28T00:00:39;0.30;99.90
49465;DHT22;35358;49.342;8.802;2023-02-28T00:03:07;0.30;99.90
49465;DHT22;35358;49.342;8.802;2023-02-28T00:05:33;0.30;99.90
49465;DHT22;35358;49.342;8.802;2023-02-28T00:08:03;0.20;99.90
49465;DHT22;35358;49.342;8.802;2023-02-28T00:10:30;0.20;99.90
49465;DHT22;35358;49.342;8.802;2023-02-28T00:13:00;0.20;99.90
49465;DHT22;35358;49.342;8.802;2023-02-28T00:15:26;0.20;99.90
49465;DHT22;35358;49.342;8.802;2023-02-28T00:17:52;0.20;99.90
49465;DHT22;35358;49.342;8.802;2023-02-28T00:20:18;0.10;99.90
49465;DHT22;35358;49.342;8.802;2023-02-28T00:22:47;0.10;99.90
49465;DHT22;35358;49.342;8.802;2023-02-28T00:25:18;0.10;99.90
49465;DHT22;35358;49.342;8.802;2023-02-28T00:27:44;0.10;99.90
49465;DHT22;35358;49.342;8.802;2023-02-28T00:30:13;0.00;99.90
49465;DHT22;35358;49.342;8.802;2023-02-28T00:32:39;0.00;99.90
49465;DHT22;35358;49.342;8.802;2023-02-28T00:35:06;0.00;99.90
49465;DHT22;35358;49.342;8.802;2023-02-28T00:37:32;0.00;99.90
49465;DHT22;35358;49.342;8.802;2023-02-28T00:39:57;0.00;99.90
49465;DHT22;35358;49.342;8.802;2023-02-28T00:42:23;0.10;99.90
49465;DHT22;35358;49.342;8.802;2023-02-28T00:44:49;0.00;99.90
49465;DHT22;35358;49.342;8.802;2023-02-28T00:47:19;0.00;99.90
49465;DHT22;35358;49.342;8.802;2023-02-28T00:49:50;0.10;99.90
49465;DHT22;35358;49.342;8.802;2023-02-28T00:52:15;0.10;99.90
49465;DHT22;35358;49.342;8.802;2023-02-28T00:54:41;0.10;99.90
49465;DHT22;35358;49.342;8.802;2023-02-28T00:57:06;0.00;99.90
49465;DHT22;35358;49.342;8.802;2023-02-28T00:59:32;0.00;99.90
49465;DHT22;35358;49.342;8.802;2023-02-28T01:01:58;0.00;99.90
49465;DHT22;35358;49.342;8.802;2023-02-28T01:04:24;0.00;99.90
49465;DHT22;35358;49.342;8.802;2023-02-28T01:06:51;0.00;99.90
49465;DHT22;35358;49.342;8.802;2023-02-28T01:09:17;-0.10;99.90
49465;DHT22;35358;49.342;8.802;2023-02-28T01:11:42;0.00;99.90
49465;DHT22;35358;49.342;8.802;2023-02-28T01:14:16;-0.10;99.90
49465;DHT22;35358;49.342;8.802;2023-02-28T01:16:42;-0.10;99.90
49465;DHT22;35358;49.342;8.802;2023-02-28T01:19:10;-0.10;99.90
49465;DHT22;35358;49.342;8.802;2023-02-28T01:21:38;-0.10;99.90
49465;DHT22;35358;49.342;8.802;2023-02-28T01:24:04;-0.10;99.90
49465;DHT22;35358;49.342;8.802;2023-02-28T01:26:33;-0.10;99.90
49465;DHT22;35358;49.342;8.802;2023-02-28T01:28:58;-0.10;99.90
49465;DHT22;35358;49.342;8.802;2023-02-28T01:31:26;-0.20;99.90
49465;DHT22;35358;49.342;8.802;2023-02-28T01:33:56;-0.20;99.90
49465;DHT22;35358;49.342;8.802;2023-02-28T01:36:24;-0.20;99.90
49465;DHT22;35358;49.342;8.802;2023-02-28T01:38:50;-0.20;99.90
49465;DHT22;35358;49.342;8.802;2023-02-28T01:41:29;-0.30;99.90
49465;DHT22;35358;49.342;8.802;2023-02-28T01:44:54;-0.30;99.90
49465;DHT22;35358;49.342;8.802;2023-02-28T01:46:53;-0.30;99.90
49465;DHT22;35358;49.342;8.802;2023-02-28T01:49:18;-0.30;99.90
49465;DHT22;35358;49.342;8.802;2023-02-28T01:51:53;-0.30;99.90
49465;DHT22;35358;49.342;8.802;2023-02-28T01:54:31;-0.30;99.90
49465;DHT22;35358;49.342;8.802;2023-02-28T01:59:30;-0.30;99.90
49465;DHT22;35358;49.342;8.802;2023-02-28T02:01:57;-0.30;99.90
49465;DHT22;35358;49.342;8.802;2023-02-28T02:04:28;-0.30;99.90
49465;DHT22;35358;49.342;8.802;2023-02-28T02:06:58;-0.30;99.90
49465;DHT22;35358;49.342;8.802;2023-02-28T02:09:24;-0.30;99.90
49465;DHT22;35358;49.342;8.802;2023-02-28T02:11:55;-0.30;99.90
49465;DHT22;35358;49.342;8.802;2023-02-28T02:14:31;-0.20;99.90
49465;DHT22;35358;49.342;8.802;2023-02-28T02:19:58;-0.30;99.90
49465;DHT22;35358;49.342;8.802;2023-02-28T02:41:53;-0.40;99.90
49465;DHT22;35358;49.342;8.802;2023-02-28T02:44:44;-0.50;99.90
49465;DHT22;35358;49.342;8.802;2023-02-28T02:47:23;-0.40;99.90
49465;DHT22;35358;49.342;8.802;2023-02-28T02:49:52;-0.50;99.90
49465;DHT22;35358;49.342;8.802;2023-02-28T02:52:23;-0.50;99.90
49465;DHT22;35358;49.342;8.802;2023-02-28T02:54:54;-0.50;99.90
49465;DHT22;35358;49.342;8.802;2023-02-28T02:57:33;-0.50;99.90
49465;DHT22;35358;49.342;8.802;2023-02-28T03:00:04;-0.60;99.90
49465;DHT22;35358;49.342;8.802;2023-02-28T03:02:37;-0.60;99.90
49465;DHT22;35358;49.342;8.802;2023-02-28T03:05:17;-0.70;99.90
49465;DHT22;35358;49.342;8.802;2023-02-28T03:07:43;-0.70;99.90
49465;DHT22;35358;49.342;8.802;2023-02-28T03:22:01;-0.70;99.90
49465;DHT22;35358;49.342;8.802;2023-02-28T03:27:25;-0.70;99.90
49465;DHT22;35358;49.342;8.802;2023-02-28T03:32:29;-0.80;99.90
49465;DHT22;35358;49.342;8.802;2023-02-28T03:35:12;-0.90;99.90
49465;DHT22;35358;49.342;8.802;2023-02-28T03:37:41;-0.90;99.90
49465;DHT22;35358;49.342;8.802;2023-02-28T03:40:23;-0.90;99.90
49465;DHT22;35358;49.342;8.802;2023-02-28T03:42:57;-0.80;99.90
49465;DHT22;35358;49.342;8.802;2023-02-28T03:45:30;-0.90;99.90
49465;DHT22;35358;49.342;8.802;2023-02-28T03:50:39;-0.90;99.90
49465;DHT22;35358;49.342;8.802;2023-02-28T03:55:43;-0.90;99.90
49465;DHT22;35358;49.342;8.802;2023-02-28T04:01:18;-0.90;99.90
49465;DHT22;35358;49.342;8.802;2023-02-28T04:03:49;-1.00;99.90
49465;DHT22;35358;49.342;8.802;2023-02-28T04:06:22;-1.00;99.90
49465;DHT22;35358;49.342;8.802;2023-02-28T04:08:51;-1.00;99.90
49465;DHT22;35358;49.342;8.802;2023-02-28T04:11:21;-1.00;99.90
49465;DHT22;35358;49.342;8.802;2023-02-28T04:13:47;-1.00;99.90
49465;DHT22;35358;49.342;8.802;2023-02-28T04:16:17;-1.00;99.90
49465;DHT22;35358;49.342;8.802;2023-02-28T04:18:45;-1.00;99.90
49465;DHT22;35358;49.342;8.802;2023-02-28T04:21:11;-1.00;99.90
49465;DHT22;35358;49.342;8.802;2023-02-28T04:23:39;-1.10;99.90
49465;DHT22;35358;49.342;8.802;2023-02-28T04:26:05;-1.10;99.90
49465;DHT22;35358;49.342;8.802;2023-02-28T04:28:31;-1.10;99.90
49465;DHT22;35358;49.342;8.802;2023-02-28T04:31:03;-1.10;99.90
49465;DHT22;35358;49.342;8.802;2023-02-28T04:33:33;-1.00;99.90
49465;DHT22;35358;49.342;8.802;2023-02-28T04:36:03;-1.00;99.90
49465;DHT22;35358;49.342;8.802;2023-02-28T04:38:32;-1.00;99.90
49465;DHT22;35358;49.342;8.802;2023-02-28T04:41:00;-1.00;99.90
49465;DHT22;35358;49.342;8.802;2023-02-28T04:43:27;-1.00;99.90
49465;DHT22;35358;49.342;8.802;2023-02-28T04:45:54;-1.00;99.90
49465;DHT22;35358;49.342;8.802;2023-02-28T04:48:25;-1.00;99.90
49465;DHT22;35358;49.342;8.802;2023-02-28T04:50:51;-0.90;99.90
49465;DHT22;35358;49.342;8.802;2023-02-28T04:53:18;-0.80;99.90
49465;DHT22;35358;49.342;8.802;2023-02-28T04:55:44;-0.70;99.90
49465;DHT22;35358;49.342;8.802;2023-02-28T04:58:12;-0.60;99.90
49465;DHT22;35358;49.342;8.802;2023-02-28T05:00:37;-0.50;99.90
49465;DHT22;35358;49.342;8.802;2023-02-28T05:03:03;-0.50;99.90
49465;DHT22;35358;49.342;8.802;2023-02-28T05:05:28;-0.50;99.90
49465;DHT22;35358;49.342;8.802;2023-02-28T05:07:56;-0.40;99.90
49465;DHT22;35358;49.342;8.802;2023-02-28T05:10:22;-0.40;99.90
49465;DHT22;35358;49.342;8.802;2023-02-28T05:12:48;-0.50;99.90
49465;DHT22;35358;49.342;8.802;2023-02-28T05:15:15;-0.40;99.90
49465;DHT22;35358;49.342;8.802;2023-02-28T05:17:41;-0.30;99.90
49465;DHT22;35358;49.342;8.802;2023-02-28T05:20:08;-0.30;99.90
49465;DHT22;35358;49.342;8.802;2023-02-28T05:22:39;-0.40;99.90
49465;DHT22;35358;49.342;8.802;2023-02-28T05:25:06;-0.30;99.90
49465;DHT22;35358;49.342;8.802;2023-02-28T05:27:34;-0.20;99.90
49465;DHT22;35358;49.342;8.802;2023-02-28T05:29:59;-0.20;99.90
49465;DHT22;35358;49.342;8.802;2023-02-28T05:32:28;-0.20;99.90
49465;DHT22;35358;49.342;8.802;2023-02-28T05:34:54;-0.20;99.90
49465;DHT22;35358;49.342;8.802;2023-02-28T05:37:19;-0.20;99.90
49465;DHT22;35358;49.342;8.802;2023-02-28T05:39:45;-0.10;99.90
49465;DHT22;35358;49.342;8.802;2023-02-28T05:42:10;-0.30;99.90
49465;DHT22;35358;49.342;8.802;2023-02-28T05:44:38;-0.30;99.90
49465;DHT22;35358;49.342;8.802;2023-02-28T05:47:04;-0.30;99.90
49465;DHT22;35358;49.342;8.802;2023-02-28T05:49:29;-0.20;99.90
49465;DHT22;35358;49.342;8.802;2023-02-28T05:51:55;-0.30;99.90
49465;DHT22;35358;49.342;8.802;2023-02-28T05:54:20;-0.40;99.90
49465;DHT22;35358;49.342;8.802;2023-02-28T05:56:46;-0.40;99.90
49465;DHT22;35358;49.342;8.802;2023-02-28T05:59:14;-0.30;99.90
49465;DHT22;35358;49.342;8.802;2023-02-28T06:01:42;-0.40;99.90
49465;DHT22;35358;49.342;8.802;2023-02-28T06:04:13;-0.50;99.90
49465;DHT22;35358;49.342;8.802;2023-02-28T06:06:48;-0.40;99.90
49465;DHT22;35358;49.342;8.802;2023-02-28T06:09:15;-0.30;99.90
49465;DHT22;35358;49.342;8.802;2023-02-28T06:11:43;-0.30;99.90
49465;DHT22;35358;49.342;8.802;2023-02-28T06:14:14;-0.40;99.90
49465;DHT22;35358;49.342;8.802;2023-02-28T06:16:41;-0.40;99.90
49465;DHT22;35358;49.342;8.802;2023-02-28T06:19:09;-0.40;99.90
49465;DHT22;35358;49.342;8.802;2023-02-28T06:21:35;-0.40;99.90
49465;DHT22;35358;49.342;8.802;2023-02-28T06:24:00;-0.50;99.90
49465;DHT22;35358;49.342;8.802;2023-02-28T06:26:26;-0.50;99.90
49465;DHT22;35358;49.342;8.802;2023-02-28T06:28:52;-0.40;99.90
49465;DHT22;35358;49.342;8.802;2023-02-28T06:31:18;-0.50;99.90
49465;DHT22;35358;49.342;8.802;2023-02-28T06:33:45;-0.40;99.90
49465;DHT22;35358;49.342;8.802;2023-02-28T06:36:12;-0.40;99.90
49465;DHT22;35358;49.342;8.802;2023-02-28T06:38:39;-0.30;99.90
49465;DHT22;35358;49.342;8.802;2023-02-28T06:41:13;-0.30;99.90
49465;DHT22;35358;49.342;8.802;2023-02-28T06:43:45;-0.30;99.90
49465;DHT22;35358;49.342;8.802;2023-02-28T06:46:16;-0.20;99.90
49465;DHT22;35358;49.342;8.802;2023-02-28T06:48:43;-0.30;99.90
49465;DHT22;35358;49.342;8.802;2023-02-28T06:51:18;-0.40;99.90
49465;DHT22;35358;49.342;8.802;2023-02-28T06:53:47;-0.30;99.90
49465;DHT22;35358;49.342;8.802;2023-02-28T06:56:14;-0.20;99.90
49465;DHT22;35358;49.342;8.802;2023-02-28T06:58:40;-0.20;99.90
49465;DHT22;35358;49.342;8.802;2023-02-28T07:01:07;-0.10;99.90
49465;DHT22;35358;49.342;8.802;2023-02-28T07:03:37;0.00;99.90
49465;DHT22;35358;49.342;8.802;2023-02-28T07:06:04;-0.10;99.90
49465;DHT22;35358;49.342;8.802;2023-02-28T07:08:33;0.00;99.90
49465;DHT22;35358;49.342;8.802;2023-02-28T07:10:58;-0.10;99.90
49465;DHT22;35358;49.342;8.802;2023-02-28T07:13:24;0.10;99.90
49465;DHT22;35358;49.342;8.802;2023-02-28T07:15:54;0.10;99.90
49465;DHT22;35358;49.342;8.802;2023-02-28T07:18:22;0.30;99.90
49465;DHT22;35358;49.342;8.802;2023-02-28T07:20:51;0.30;99.90
49465;DHT22;35358;49.342;8.802;2023-02-28T07:23:16;0.40;99.90
49465;DHT22;35358;49.342;8.802;2023-02-28T07:25:42;0.40;99.90
49465;DHT22;35358;49.342;8.802;2023-02-28T07:28:08;0.40;99.90
49465;DHT22;35358;49.342;8.802;2023-02-28T07:30:33;0.50;99.90
49465;DHT22;35358;49.342;8.802;2023-02-28T07:32:59;0.60;99.90
49465;DHT22;35358;49.342;8.802;2023-02-28T07:35:25;0.60;99.90
49465;DHT22;35358;49.342;8.802;2023-02-28T07:37:52;0.60;99.90
49465;DHT22;35358;49.342;8.802;2023-02-28T07:40:18;0.60;99.90
49465;DHT22;35358;49.342;8.802;2023-02-28T07:42:44;0.70;99.90
49465;DHT22;35358;49.342;8.802;2023-02-28T07:45:10;0.60;99.90
49465;DHT22;35358;49.342;8.802;2023-02-28T07:47:38;0.70;99.90
49465;DHT22;35358;49.342;8.802;2023-02-28T07:50:05;0.70;99.90
49465;DHT22;35358;49.342;8.802;2023-02-28T07:52:33;0.70;99.90
49465;DHT22;35358;49.342;8.802;2023-02-28T07:55:01;0.70;99.90
49465;DHT22;35358;49.342;8.802;2023-02-28T07:57:27;0.80;99.90
49465;DHT22;35358;49.342;8.802;2023-02-28T07:59:52;0.90;99.90
49465;DHT22;35358;49.342;8.802;2023-02-28T08:02:20;0.80;99.90
49465;DHT22;35358;49.342;8.802;2023-02-28T08:04:46;0.80;99.90
49465;DHT22;35358;49.342;8.802;2023-02-28T08:07:15;0.90;99.90
49465;DHT22;35358;49.342;8.802;2023-02-28T08:09:44;1.00;99.90
49465;DHT22;35358;49.342;8.802;2023-02-28T08:12:12;0.90;99.90
49465;DHT22;35358;49.342;8.802;2023-02-28T08:14:40;0.90;99.90
49465;DHT22;35358;49.342;8.802;2023-02-28T08:17:06;1.10;99.90
49465;DHT22;35358;49.342;8.802;2023-02-28T08:19:32;1.10;99.90
49465;DHT22;35358;49.342;8.802;2023-02-28T08:22:00;1.10;99.90
49465;DHT22;35358;49.342;8.802;2023-02-28T08:24:26;1.20;99.90
49465;DHT22;35358;49.342;8.802;2023-02-28T08:26:54;1.30;99.90
49465;DHT22;35358;49.342;8.802;2023-02-28T08:29:20;1.30;99.90
49465;DHT22;35358;49.342;8.802;2023-02-28T08:31:45;1.40;99.90
49465;DHT22;35358;49.342;8.802;2023-02-28T08:34:14;1.50;99.90
49465;DHT22;35358;49.342;8.802;2023-02-28T08:36:43;1.50;99.90
49465;DHT22;35358;49.342;8.802;2023-02-28T08:39:10;1.50;99.90
49465;DHT22;35358;49.342;8.802;2023-02-28T08:41:38;1.50;99.90
49465;DHT22;35358;49.342;8.802;2023-02-28T08:44:06;1.60;99.90
49465;DHT22;35358;49.342;8.802;2023-02-28T08:46:32;1.40;99.90
49465;DHT22;35358;49.342;8.802;2023-02-28T08:49:00;1.50;99.90
49465;DHT22;35358;49.342;8.802;2023-02-28T08:51:27;1.70;99.90
49465;DHT22;35358;49.342;8.802;2023-02-28T08:53:55;1.90;99.90
49465;DHT22;35358;49.342;8.802;2023-02-28T08:56:21;1.90;99.90
49465;DHT22;35358;49.342;8.802;2023-02-28T08:58:48;1.80;99.90
49465;DHT22;35358;49.342;8.802;2023-02-28T09:01:17;1.90;99.90
49465;DHT22;35358;49.342;8.802;2023-02-28T09:03:48;1.90;99.90
49465;DHT22;35358;49.342;8.802;2023-02-28T09:06:17;1.90;99.90
49465;DHT22;35358;49.342;8.802;2023-02-28T09:08:46;2.00;99.90
49465;DHT22;35358;49.342;8.802;2023-02-28T09:11:15;2.20;99.90
49465;DHT22;35358;49.342;8.802;2023-02-28T09:13:46;2.20;99.90
49465;DHT22;35358;49.342;8.802;2023-02-28T09:39:52;2.40;99.90
49465;DHT22;35358;49.342;8.802;2023-02-28T09:42:32;2.60;99.90
49465;DHT22;35358;49.342;8.802;2023-02-28T09:48:29;2.60;99.90
49465;DHT22;35358;49.342;8.802;2023-02-28T09:51:04;2.50;99.90
49465;DHT22;35358;49.342;8.802;2023-02-28T09:53:37;2.60;99.90
49465;DHT22;35358;49.342;8.802;2023-02-28T09:56:12;2.70;99.90
49465;DHT22;35358;49.342;8.802;2023-02-28T10:06:49;3.00;99.90
49465;DHT22;35358;49.342;8.802;2023-02-28T10:09:24;2.90;99.90
49465;DHT22;35358;49.342;8.802;2023-02-28T10:11:53;3.10;99.90
49465;DHT22;35358;49.342;8.802;2023-02-28T10:14:22;3.10;99.90
49465;DHT22;35358;49.342;8.802;2023-02-28T10:17:02;3.00;99.90
49465;DHT22;35358;49.342;8.802;2023-02-28T10:19:55;3.10;99.90
49465;DHT22;35358;49.342;8.802;2023-02-28T10:22:29;3.30;99.90
49465;DHT22;35358;49.342;8.802;2023-02-28T10:25:00;3.30;99.90
49465;DHT22;35358;49.342;8.802;2023-02-28T10:27:35;3.10;99.90
49465;DHT22;35358;49.342;8.802;2023-02-28T10:30:02;3.30;99.90
49465;DHT22;35358;49.342;8.802;2023-02-28T10:32:34;3.30;99.90
49465;DHT22;35358;49.342;8.802;2023-02-28T10:37:41;3.30;99.90
49465;DHT22;35358;49.342;8.802;2023-02-28T10:43:23;3.40;99.90
49465;DHT22;35358;49.342;8.802;2023-02-28T10:46:13;3.50;99.90
49465;DHT22;35358;49.342;8.802;2023-02-28T10:48:57;3.50;99.90
49465;DHT22;35358;49.342;8.802;2023-02-28T10:51:25;3.40;99.90
49465;DHT22;35358;49.342;8.802;2023-02-28T10:54:02;3.40;99.90
49465;DHT22;35358;49.342;8.802;2023-02-28T10:56:28;3.60;99.90
49465;DHT22;35358;49.342;8.802;2023-02-28T10:59:01;3.70;99.90
49465;DHT22;35358;49.342;8.802;2023-02-28T11:04:00;3.70;99.90
49465;DHT22;35358;49.342;8.802;2023-02-28T11:06:29;3.60;99.90
49465;DHT22;35358;49.342;8.802;2023-02-28T11:09:00;3.70;99.90
49465;DHT22;35358;49.342;8.802;2023-02-28T11:11:29;3.90;99.90
49465;DHT22;35358;49.342;8.802;2023-02-28T11:14:05;4.00;99.90
49465;DHT22;35358;49.342;8.802;2023-02-28T11:16:36;3.90;99.90
49465;DHT22;35358;49.342;8.802;2023-02-28T11:19:04;3.80;99.90
49465;DHT22;35358;49.342;8.802;2023-02-28T11:21:36;3.60;99.90
49465;DHT22;35358;49.342;8.802;2023-02-28T11:26:49;3.60;99.90
49465;DHT22;35358;49.342;8.802;2023-02-28T11:29:31;5.20;99.90
49465;DHT22;35358;49.342;8.802;2023-02-28T11:34:29;6.70;99.90
49465;DHT22;35358;49.342;8.802;2023-02-28T11:36:57;7.10;99.90
49465;DHT22;35358;49.342;8.802;2023-02-28T11:39:23;6.80;99.90
49465;DHT22;35358;49.342;8.802;2023-02-28T11:42:11;6.30;99.90
49465;DHT22;35358;49.342;8.802;2023-02-28T11:50:52;4.20;99.90
49465;DHT22;35358;49.342;8.802;2023-02-28T12:02:03;4.00;99.90
49465;DHT22;35358;49.342;8.802;2023-02-28T12:12:56;4.60;99.90
49465;DHT22;35358;49.342;8.802;2023-02-28T12:26:27;5.10;99.90
49465;DHT22;35358;49.342;8.802;2023-02-28T12:34:39;5.20;99.90
49465;DHT22;35358;49.342;8.802;2023-02-28T12:37:13;5.50;99.90
49465;DHT22;35358;49.342;8.802;2023-02-28T12:39:49;5.60;99.90
49465;DHT22;35358;49.342;8.802;2023-02-28T12:42:29;5.60;99.90
49465;DHT22;35358;49.342;8.802;2023-02-28T12:45:04;5.70;99.90
49465;DHT22;35358;49.342;8.802;2023-02-28T12:47:34;5.40;99.90
49465;DHT22;35358;49.342;8.802;2023-02-28T12:50:02;5.80;99.90
49465;DHT22;35358;49.342;8.802;2023-02-28T12:55:16;5.90;99.90
49465;DHT22;35358;49.342;8.802;2023-02-28T13:00:34;6.00;99.90
49465;DHT22;35358;49.342;8.802;2023-02-28T13:03:25;5.50;99.90
49465;DHT22;35358;49.342;8.802;2023-02-28T13:11:27;5.80;99.90
49465;DHT22;35358;49.342;8.802;2023-02-28T13:14:00;5.90;99.90
49465;DHT22;35358;49.342;8.802;2023-02-28T13:16:27;6.40;99.90
49465;DHT22;35358;49.342;8.802;2023-02-28T13:19:10;6.60;99.90
49465;DHT22;35358;49.342;8.802;2023-02-28T13:21:43;6.00;99.90
49465;DHT22;35358;49.342;8.802;2023-02-28T13:24:10;5.90;99.90
49465;DHT22;35358;49.342;8.802;2023-02-28T13:34:41;5.80;99.90
49465;DHT22;35358;49.342;8.802;2023-02-28T13:50:38;5.80;99.90
49465;DHT22;35358;49.342;8.802;2023-02-28T14:06:59;6.60;99.90
49465;DHT22;35358;49.342;8.802;2023-02-28T14:09:33;6.70;99.90
49465;DHT22;35358;49.342;8.802;2023-02-28T14:15:25;6.90;99.90
49465;DHT22;35358;49.342;8.802;2023-02-28T14:17:56;6.80;99.90
49465;DHT22;35358;49.342;8.802;2023-02-28T14:20:27;6.70;99.90
49465;DHT22;35358;49.342;8.802;2023-02-28T14:23:14;6.50;99.90
49465;DHT22;35358;49.342;8.802;2023-02-28T14:31:32;6.00;99.90
49465;DHT22;35358;49.342;8.802;2023-02-28T14:36:44;5.90;99.90
49465;DHT22;35358;49.342;8.802;2023-02-28T14:39:23;5.70;99.90
49465;DHT22;35358;49.342;8.802;2023-02-28T14:41:53;5.70;99.90
49465;DHT22;35358;49.342;8.802;2023-02-28T14:44:23;5.90;99.90
49465;DHT22;35358;49.342;8.802;2023-02-28T14:46:59;5.40;99.90
49465;DHT22;35358;49.342;8.802;2023-02-28T14:49:52;5.40;99.90
49465;DHT22;35358;49.342;8.802;2023-02-28T14:52:24;5.90;99.90
49465;DHT22;35358;49.342;8.802;2023-02-28T14:54:55;6.20;99.90
49465;DHT22;35358;49.342;8.802;2023-02-28T14:57:30;6.70;99.90
49465;DHT22;35358;49.342;8.802;2023-02-28T15:02:29;6.30;99.90
49465;DHT22;35358;49.342;8.802;2023-02-28T15:05:47;6.00;99.90
49465;DHT22;35358;49.342;8.802;2023-02-28T15:07:48;6.40;99.90
49465;DHT22;35358;49.342;8.802;2023-02-28T15:10:23;6.10;99.90
49465;DHT22;35358;49.342;8.802;2023-02-28T15:13:05;6.00;99.90
49465;DHT22;35358;49.342;8.802;2023-02-28T15:18:21;5.60;99.90
49465;DHT22;35358;49.342;8.802;2023-02-28T15:20:51;5.60;99.90
49465;DHT22;35358;49.342;8.802;2023-02-28T15:23:21;5.60;99.90
49465;DHT22;35358;49.342;8.802;2023-02-28T15:25:47;5.60;99.90
49465;DHT22;35358;49.342;8.802;2023-02-28T15:28:19;5.80;99.90
49465;DHT22;35358;49.342;8.802;2023-02-28T15:31:00;5.90;99.90
49465;DHT22;35358;49.342;8.802;2023-02-28T15:33:30;6.50;99.90
49465;DHT22;35358;49.342;8.802;2023-02-28T15:36:15;6.60;99.90
49465;DHT22;35358;49.342;8.802;2023-02-28T15:38:43;6.40;99.90
49465;DHT22;35358;49.342;8.802;2023-02-28T15:41:27;5.60;99.90
49465;DHT22;35358;49.342;8.802;2023-02-28T15:44:29;5.60;99.90
49465;DHT22;35358;49.342;8.802;2023-02-28T15:47:04;5.80;99.90
49465;DHT22;35358;49.342;8.802;2023-02-28T15:49:57;5.70;99.90
49465;DHT22;35358;49.342;8.802;2023-02-28T15:52:43;5.60;99.90
49465;DHT22;35358;49.342;8.802;2023-02-28T15:57:50;5.60;99.90
49465;DHT22;35358;49.342;8.802;2023-02-28T16:00:24;5.40;99.90
49465;DHT22;35358;49.342;8.802;2023-02-28T16:02:50;5.30;99.90
49465;DHT22;35358;49.342;8.802;2023-02-28T16:05:19;5.70;99.90
49465;DHT22;35358;49.342;8.802;2023-02-28T16:07:47;5.90;99.90
49465;DHT22;35358;49.342;8.802;2023-02-28T16:10:14;5.90;99.90
49465;DHT22;35358;49.342;8.802;2023-02-28T16:12:40;5.60;99.90
49465;DHT22;35358;49.342;8.802;2023-02-28T16:15:17;5.30;99.90
49465;DHT22;35358;49.342;8.802;2023-02-28T16:17:44;5.50;99.90
49465;DHT22;35358;49.342;8.802;2023-02-28T16:20:21;5.20;99.90
49465;DHT22;35358;49.342;8.802;2023-02-28T16:22:47;5.20;99.90
49465;DHT22;35358;49.342;8.802;2023-02-28T16:25:18;5.30;99.90
49465;DHT22;35358;49.342;8.802;2023-02-28T16:27:48;5.80;99.90
49465;DHT22;35358;49.342;8.802;2023-02-28T16:30:24;5.70;99.90
49465;DHT22;35358;49.342;8.802;2023-02-28T16:32:54;5.50;99.90
49465;DHT22;35358;49.342;8.802;2023-02-28T16:35:21;5.80;99.90
49465;DHT22;35358;49.342;8.802;2023-02-28T16:37:50;5.80;99.90
49465;DHT22;35358;49.342;8.802;2023-02-28T16:40:18;6.00;99.90
49465;DHT22;35358;49.342;8.802;2023-02-28T16:42:47;5.90;99.90
49465;DHT22;35358;49.342;8.802;2023-02-28T16:45:22;5.30;99.90
49465;DHT22;35358;49.342;8.802;2023-02-28T16:47:51;4.70;99.90
49465;DHT22;35358;49.342;8.802;2023-02-28T16:50:21;4.50;99.90
49465;DHT22;35358;49.342;8.802;2023-02-28T16:52:52;4.50;99.90
49465;DHT22;35358;49.342;8.802;2023-02-28T16:55:24;4.30;99.90
49465;DHT22;35358;49.342;8.802;2023-02-28T16:57:51;4.30;99.90
49465;DHT22;35358;49.342;8.802;2023-02-28T17:00:17;4.10;99.90
49465;DHT22;35358;49.342;8.802;2023-02-28T17:02:46;4.00;99.90
49465;DHT22;35358;49.342;8.802;2023-02-28T17:05:12;3.90;99.90
49465;DHT22;35358;49.342;8.802;2023-02-28T17:07:38;3.90;99.90
49465;DHT22;35358;49.342;8.802;2023-02-28T17:10:15;3.80;99.90
49465;DHT22;35358;49.342;8.802;2023-02-28T17:12:41;3.70;99.90
49465;DHT22;35358;49.342;8.802;2023-02-28T17:15:10;3.60;99.90
49465;DHT22;35358;49.342;8.802;2023-02-28T17:17:38;3.50;99.90
49465;DHT22;35358;49.342;8.802;2023-02-28T17:20:05;3.50;99.90
49465;DHT22;35358;49.342;8.802;2023-02-28T17:22:35;3.50;99.90
49465;DHT22;35358;49.342;8.802;2023-02-28T17:25:03;3.40;99.90
49465;DHT22;35358;49.342;8.802;2023-02-28T17:27:28;3.50;99.90
49465;DHT22;35358;49.342;8.802;2023-02-28T17:29:54;3.40;99.90
49465;DHT22;35358;49.342;8.802;2023-02-28T17:32:19;3.40;99.90
49465;DHT22;35358;49.342;8.802;2023-02-28T17:34:45;3.30;99.90
49465;DHT22;35358;49.342;8.802;2023-02-28T17:37:11;3.30;99.90
49465;DHT22;35358;49.342;8.802;2023-02-28T17:39:37;3.30;99.90
49465;DHT22;35358;49.342;8.802;2023-02-28T17:42:02;3.20;99.90
49465;DHT22;35358;49.342;8.802;2023-02-28T17:44:30;3.20;99.90
49465;DHT22;35358;49.342;8.802;2023-02-28T17:46:58;3.10;99.90
49465;DHT22;35358;49.342;8.802;2023-02-28T17:49:24;3.10;99.90
49465;DHT22;35358;49.342;8.802;2023-02-28T17:51:50;3.00;99.90
49465;DHT22;35358;49.342;8.802;2023-02-28T17:54:15;3.00;99.90
49465;DHT22;35358;49.342;8.802;2023-02-28T17:56:41;2.90;99.90
49465;DHT22;35358;49.342;8.802;2023-02-28T17:59:12;2.80;99.90
49465;DHT22;35358;49.342;8.802;2023-02-28T18:01:40;2.80;99.90
49465;DHT22;35358;49.342;8.802;2023-02-28T18:04:08;2.80;99.90
49465;DHT22;35358;49.342;8.802;2023-02-28T18:06:39;2.80;99.90
49465;DHT22;35358;49.342;8.802;2023-02-28T18:09:15;2.80;99.90
49465;DHT22;35358;49.342;8.802;2023-02-28T18:11:44;2.80;99.90
49465;DHT22;35358;49.342;8.802;2023-02-28T18:14:19;2.70;99.90
49465;DHT22;35358;49.342;8.802;2023-02-28T18:16:47;2.60;99.90
49465;DHT22;35358;49.342;8.802;2023-02-28T18:19:15;2.60;99.90
49465;DHT22;35358;49.342;8.802;2023-02-28T18:21:49;2.60;99.90
49465;DHT22;35358;49.342;8.802;2023-02-28T18:24:19;2.60;99.90
49465;DHT22;35358;49.342;8.802;2023-02-28T18:26:48;2.50;99.90
49465;DHT22;35358;49.342;8.802;2023-02-28T18:29:19;2.40;99.90
49465;DHT22;35358;49.342;8.802;2023-02-28T18:31:46;2.50;99.90
49465;DHT22;35358;49.342;8.802;2023-02-28T18:34:14;2.40;99.90
49465;DHT22;35358;49.342;8.802;2023-02-28T18:36:40;2.40;99.90
49465;DHT22;35358;49.342;8.802;2023-02-28T18:39:07;2.40;99.90
49465;DHT22;35358;49.342;8.802;2023-02-28T18:41:33;2.30;99.90
49465;DHT22;35358;49.342;8.802;2023-02-28T18:44:00;2.30;99.90
49465;DHT22;35358;49.342;8.802;2023-02-28T18:46:27;2.30;99.90
49465;DHT22;35358;49.342;8.802;2023-02-28T18:48:55;2.30;99.90
49465;DHT22;35358;49.342;8.802;2023-02-28T18:51:24;2.30;99.90
49465;DHT22;35358;49.342;8.802;2023-02-28T18:53:51;2.30;99.90
49465;DHT22;35358;49.342;8.802;2023-02-28T18:56:19;2.30;99.90
49465;DHT22;35358;49.342;8.802;2023-02-28T18:58:47;2.30;99.90
49465;DHT22;35358;49.342;8.802;2023-02-28T19:01:23;2.30;99.90
49465;DHT22;35358;49.342;8.802;2023-02-28T19:03:54;2.30;99.90
49465;DHT22;35358;49.342;8.802;2023-02-28T19:06:22;2.30;99.90
49465;DHT22;35358;49.342;8.802;2023-02-28T19:08:59;2.20;99.90
49465;DHT22;35358;49.342;8.802;2023-02-28T19:11:25;2.10;99.90
49465;DHT22;35358;49.342;8.802;2023-02-28T19:13:50;2.10;99.90
49465;DHT22;35358;49.342;8.802;2023-02-28T19:16:20;2.00;99.90
49465;DHT22;35358;49.342;8.802;2023-02-28T19:18:49;2.00;99.90
49465;DHT22;35358;49.342;8.802;2023-02-28T19:21:16;2.00;99.90